Chisinau, Moldova
Current Conditions -  °F | °C
As of 12:30 AM on Tuesday 21 Oct 2014 (Local Time) from LUKK Reporting Station
Clear Clear  
Wind Chill: 54°   Ceiling: Unl
Heat Index: 54°   Visibility: 6mi
Dew Point: 43°   Wind: 2mph
Humidity: 67%   Direction: NA
Pressure: 29.88"   Gusts: NA
Location:  47.03°N, 28.83°E
Report Text: LUKK 202130Z VRB02KT CAVOK 12/06 Q1012 R26/CLRD65NOSIG
Loading
Personal Weather Stations






























Interactive Weather Map
Tropical Storm Tracking
New forecast layout! Learn more

10-Day Weather Forecast

Advertisements
Track Severe Weather on mobile